sensor_id;sensor_type;location;lat;lon;timestamp;P1;durP1;ratioP1;P2;durP2;ratioP2
428;SDS011;201;48.758;9.290;2022-09-28T18:36:31;10.13;;;3.93;;
428;SDS011;201;48.758;9.290;2022-09-28T18:39:00;3.53;;;3.30;;
428;SDS011;201;48.758;9.290;2022-09-28T18:41:27;5.70;;;3.10;;
428;SDS011;201;48.758;9.290;2022-09-28T18:43:53;4.30;;;3.83;;
428;SDS011;201;48.758;9.290;2022-09-28T18:46:24;4.80;;;4.00;;
428;SDS011;201;48.758;9.290;2022-09-28T18:48:53;9.47;;;3.90;;
428;SDS011;201;48.758;9.290;2022-09-28T18:51:20;8.70;;;4.13;;
428;SDS011;201;48.758;9.290;2022-09-28T18:53:45;3.80;;;3.50;;
428;SDS011;201;48.758;9.290;2022-09-28T18:56:12;3.60;;;2.70;;
428;SDS011;201;48.758;9.290;2022-09-28T18:58:41;8.80;;;4.00;;
428;SDS011;201;48.758;9.290;2022-09-28T19:01:08;4.30;;;3.67;;
428;SDS011;201;48.758;9.290;2022-09-28T19:03:38;4.07;;;3.73;;
428;SDS011;201;48.758;9.290;2022-09-28T19:06:08;4.90;;;3.50;;
428;SDS011;201;48.758;9.290;2022-09-28T19:08:38;6.63;;;3.90;;
428;SDS011;201;48.758;9.290;2022-09-28T19:11:11;6.50;;;3.70;;
428;SDS011;201;48.758;9.290;2022-09-28T19:13:38;5.70;;;3.93;;
428;SDS011;201;48.758;9.290;2022-09-28T19:16:11;4.80;;;4.43;;
428;SDS011;201;48.758;9.290;2022-09-28T19:18:45;5.07;;;3.70;;
428;SDS011;201;48.758;9.290;2022-09-28T19:21:12;6.23;;;3.70;;
428;SDS011;201;48.758;9.290;2022-09-28T19:23:39;7.80;;;4.40;;
428;SDS011;201;48.758;9.290;2022-09-28T19:26:12;6.90;;;4.00;;
428;SDS011;201;48.758;9.290;2022-09-28T19:28:39;6.70;;;4.50;;
428;SDS011;201;48.758;9.290;2022-09-28T19:31:06;8.93;;;4.57;;
428;SDS011;201;48.758;9.290;2022-09-28T19:33:35;8.77;;;4.30;;
428;SDS011;201;48.758;9.290;2022-09-28T19:36:05;6.00;;;4.20;;
428;SDS011;201;48.758;9.290;2022-09-28T19:38:33;5.57;;;4.03;;
428;SDS011;201;48.758;9.290;2022-09-28T19:41:00;6.90;;;4.30;;
428;SDS011;201;48.758;9.290;2022-09-28T19:43:26;4.13;;;3.60;;
428;SDS011;201;48.758;9.290;2022-09-28T19:45:52;5.63;;;3.70;;
428;SDS011;201;48.758;9.290;2022-09-28T19:48:29;4.90;;;4.37;;
428;SDS011;201;48.758;9.290;2022-09-28T19:50:56;5.43;;;3.83;;
428;SDS011;201;48.758;9.290;2022-09-28T19:53:24;6.03;;;4.77;;
428;SDS011;201;48.758;9.290;2022-09-28T19:55:51;11.30;;;4.10;;
428;SDS011;201;48.758;9.290;2022-09-28T19:58:18;6.03;;;3.70;;
428;SDS011;201;48.758;9.290;2022-09-28T20:00:45;10.50;;;4.00;;
428;SDS011;201;48.758;9.290;2022-09-28T20:03:10;5.60;;;3.47;;
428;SDS011;201;48.758;9.290;2022-09-28T20:05:36;6.30;;;3.80;;
428;SDS011;201;48.758;9.290;2022-09-28T20:08:03;5.90;;;4.37;;
428;SDS011;201;48.758;9.290;2022-09-28T20:10:28;6.70;;;3.70;;
428;SDS011;201;48.758;9.290;2022-09-28T20:12:54;7.17;;;4.37;;
428;SDS011;201;48.758;9.290;2022-09-28T20:15:19;4.33;;;3.73;;
428;SDS011;201;48.758;9.290;2022-09-28T20:17:47;4.70;;;3.57;;
428;SDS011;201;48.758;9.290;2022-09-28T20:20:13;5.80;;;3.80;;
428;SDS011;201;48.758;9.290;2022-09-28T20:22:38;5.47;;;3.90;;
428;SDS011;201;48.758;9.290;2022-09-28T20:25:06;8.17;;;4.63;;
428;SDS011;201;48.758;9.290;2022-09-28T20:27:31;11.60;;;4.60;;
428;SDS011;201;48.758;9.290;2022-09-28T20:29:57;8.97;;;4.70;;
428;SDS011;201;48.758;9.290;2022-09-28T20:32:23;4.10;;;3.90;;
428;SDS011;201;48.758;9.290;2022-09-28T20:34:49;6.37;;;4.70;;
428;SDS011;201;48.758;9.290;2022-09-28T20:37:14;8.37;;;5.43;;
428;SDS011;201;48.758;9.290;2022-09-28T20:39:41;9.87;;;4.07;;
428;SDS011;201;48.758;9.290;2022-09-28T20:42:07;22.87;;;6.10;;
428;SDS011;201;48.758;9.290;2022-09-28T20:44:33;7.73;;;4.73;;
428;SDS011;201;48.758;9.290;2022-09-28T20:46:58;15.50;;;5.30;;
428;SDS011;201;48.758;9.290;2022-09-28T20:49:25;5.57;;;4.50;;
428;SDS011;201;48.758;9.290;2022-09-28T20:51:52;6.43;;;4.70;;
428;SDS011;201;48.758;9.290;2022-09-28T20:54:19;10.07;;;3.93;;
428;SDS011;201;48.758;9.290;2022-09-28T20:56:45;3.80;;;3.50;;
428;SDS011;201;48.758;9.290;2022-09-28T20:59:12;9.37;;;4.03;;
428;SDS011;201;48.758;9.290;2022-09-28T21:01:38;5.27;;;4.30;;
428;SDS011;201;48.758;9.290;2022-09-28T21:04:04;6.50;;;4.80;;
428;SDS011;201;48.758;9.290;2022-09-28T21:06:31;6.20;;;4.00;;
428;SDS011;201;48.758;9.290;2022-09-28T21:08:58;3.30;;;3.10;;
428;SDS011;201;48.758;9.290;2022-09-28T21:11:25;4.40;;;3.80;;
428;SDS011;201;48.758;9.290;2022-09-28T21:13:52;4.10;;;3.60;;
428;SDS011;201;48.758;9.290;2022-09-28T21:16:19;4.00;;;3.03;;
428;SDS011;201;48.758;9.290;2022-09-28T21:18:44;7.50;;;3.53;;
428;SDS011;201;48.758;9.290;2022-09-28T21:21:11;7.00;;;3.57;;
428;SDS011;201;48.758;9.290;2022-09-28T21:23:38;3.97;;;3.77;;
428;SDS011;201;48.758;9.290;2022-09-28T21:28:30;5.43;;;3.67;;
428;SDS011;201;48.758;9.290;2022-09-28T21:30:56;5.43;;;3.30;;
428;SDS011;201;48.758;9.290;2022-09-28T21:33:22;3.70;;;3.10;;
428;SDS011;201;48.758;9.290;2022-09-28T21:35:48;5.30;;;3.03;;
428;SDS011;201;48.758;9.290;2022-09-28T21:38:13;3.27;;;3.13;;
428;SDS011;201;48.758;9.290;2022-09-28T21:40:39;3.67;;;3.20;;
428;SDS011;201;48.758;9.290;2022-09-28T21:43:05;4.90;;;4.30;;
428;SDS011;201;48.758;9.290;2022-09-28T21:45:31;4.23;;;3.70;;
428;SDS011;201;48.758;9.290;2022-09-28T21:47:56;6.27;;;4.67;;
428;SDS011;201;48.758;9.290;2022-09-28T21:50:23;5.47;;;4.20;;
428;SDS011;201;48.758;9.290;2022-09-28T21:52:50;4.67;;;4.37;;
428;SDS011;201;48.758;9.290;2022-09-28T21:55:17;6.20;;;5.03;;
428;SDS011;201;48.758;9.290;2022-09-28T21:57:44;7.93;;;4.87;;
428;SDS011;201;48.758;9.290;2022-09-28T22:00:11;7.47;;;5.20;;
428;SDS011;201;48.758;9.290;2022-09-28T22:02:41;6.33;;;4.33;;
428;SDS011;201;48.758;9.290;2022-09-28T22:05:08;6.87;;;5.03;;
428;SDS011;201;48.758;9.290;2022-09-28T22:07:34;4.37;;;3.77;;
428;SDS011;201;48.758;9.290;2022-09-28T22:10:00;6.00;;;5.40;;
428;SDS011;201;48.758;9.290;2022-09-28T22:12:27;6.87;;;4.53;;
428;SDS011;201;48.758;9.290;2022-09-28T22:14:53;6.30;;;4.70;;
428;SDS011;201;48.758;9.290;2022-09-28T22:17:19;5.03;;;4.73;;
428;SDS011;201;48.758;9.290;2022-09-28T22:19:45;4.63;;;4.00;;
428;SDS011;201;48.758;9.290;2022-09-28T22:22:10;7.40;;;3.53;;
428;SDS011;201;48.758;9.290;2022-09-28T22:24:36;6.60;;;4.97;;
428;SDS011;201;48.758;9.290;2022-09-28T22:27:01;3.90;;;3.60;;
428;SDS011;201;48.758;9.290;2022-09-28T22:29:28;4.93;;;4.43;;
428;SDS011;201;48.758;9.290;2022-09-28T22:31:53;9.83;;;4.40;;
428;SDS011;201;48.758;9.290;2022-09-28T22:34:25;4.43;;;4.13;;
428;SDS011;201;48.758;9.290;2022-09-28T22:36:56;5.30;;;4.33;;
428;SDS011;201;48.758;9.290;2022-09-28T22:39:22;4.07;;;3.87;;
428;SDS011;201;48.758;9.290;2022-09-28T22:41:48;5.57;;;4.50;;
428;SDS011;201;48.758;9.290;2022-09-28T22:44:14;6.70;;;4.13;;
428;SDS011;201;48.758;9.290;2022-09-28T22:46:39;6.50;;;4.60;;
428;SDS011;201;48.758;9.290;2022-09-28T22:49:05;5.63;;;4.60;;
428;SDS011;201;48.758;9.290;2022-09-28T22:51:30;6.70;;;4.20;;
428;SDS011;201;48.758;9.290;2022-09-28T22:53:56;4.53;;;4.00;;
428;SDS011;201;48.758;9.290;2022-09-28T22:56:22;6.03;;;4.20;;
428;SDS011;201;48.758;9.290;2022-09-28T22:58:48;5.10;;;3.90;;
428;SDS011;201;48.758;9.290;2022-09-28T23:01:14;4.00;;;3.80;;
428;SDS011;201;48.758;9.290;2022-09-28T23:03:41;6.60;;;4.60;;
428;SDS011;201;48.758;9.290;2022-09-28T23:06:09;8.53;;;5.10;;
428;SDS011;201;48.758;9.290;2022-09-28T23:08:35;6.63;;;5.10;;
428;SDS011;201;48.758;9.290;2022-09-28T23:11:01;6.50;;;5.07;;
428;SDS011;201;48.758;9.290;2022-09-28T23:13:27;7.83;;;5.13;;
428;SDS011;201;48.758;9.290;2022-09-28T23:15:58;5.60;;;4.83;;
428;SDS011;201;48.758;9.290;2022-09-28T23:18:36;5.87;;;5.57;;
428;SDS011;201;48.758;9.290;2022-09-28T23:21:05;7.30;;;5.73;;
428;SDS011;201;48.758;9.290;2022-09-28T23:23:34;6.83;;;5.90;;
428;SDS011;201;48.758;9.290;2022-09-28T23:26:00;11.90;;;7.20;;
428;SDS011;201;48.758;9.290;2022-09-28T23:28:37;9.40;;;7.17;;
428;SDS011;201;48.758;9.290;2022-09-28T23:31:10;15.27;;;7.07;;
428;SDS011;201;48.758;9.290;2022-09-28T23:33:40;9.70;;;6.57;;
428;SDS011;201;48.758;9.290;2022-09-28T23:36:06;8.57;;;7.57;;
428;SDS011;201;48.758;9.290;2022-09-28T23:38:32;9.27;;;7.37;;
428;SDS011;201;48.758;9.290;2022-09-28T23:40:57;7.87;;;7.30;;
428;SDS011;201;48.758;9.290;2022-09-28T23:43:23;7.67;;;7.07;;
428;SDS011;201;48.758;9.290;2022-09-28T23:45:49;9.30;;;7.90;;
428;SDS011;201;48.758;9.290;2022-09-28T23:48:14;8.30;;;7.50;;
428;SDS011;201;48.758;9.290;2022-09-28T23:50:43;12.40;;;7.80;;
428;SDS011;201;48.758;9.290;2022-09-28T23:53:09;12.43;;;8.13;;
428;SDS011;201;48.758;9.290;2022-09-28T23:55:37;11.40;;;8.60;;
428;SDS011;201;48.758;9.290;2022-09-28T23:58:03;10.73;;;7.90;;
